sensor_id;sensor_type;location;lat;lon;timestamp;P1;durP1;ratioP1;P2;durP2;ratioP2
17177;SDS011;8704;52.006;4.374;2023-05-10T00:00:12;30.65;;;27.25;;
17177;SDS011;8704;52.006;4.374;2023-05-10T00:02:42;29.17;;;26.15;;
17177;SDS011;8704;52.006;4.374;2023-05-10T00:05:10;29.83;;;26.92;;
17177;SDS011;8704;52.006;4.374;2023-05-10T00:07:38;31.80;;;28.63;;
17177;SDS011;8704;52.006;4.374;2023-05-10T00:10:06;32.80;;;29.38;;
17177;SDS011;8704;52.006;4.374;2023-05-10T00:12:35;30.65;;;27.38;;
17177;SDS011;8704;52.006;4.374;2023-05-10T00:15:03;30.70;;;27.65;;
17177;SDS011;8704;52.006;4.374;2023-05-10T00:17:31;28.95;;;26.05;;
17177;SDS011;8704;52.006;4.374;2023-05-10T00:20:00;33.47;;;29.98;;
17177;SDS011;8704;52.006;4.374;2023-05-10T00:22:30;44.85;;;36.28;;
17177;SDS011;8704;52.006;4.374;2023-05-10T00:24:59;38.33;;;33.60;;
17177;SDS011;8704;52.006;4.374;2023-05-10T00:27:27;44.80;;;39.97;;
17177;SDS011;8704;52.006;4.374;2023-05-10T00:29:54;41.97;;;37.53;;
17177;SDS011;8704;52.006;4.374;2023-05-10T00:32:22;40.45;;;35.22;;
17177;SDS011;8704;52.006;4.374;2023-05-10T00:34:50;44.10;;;39.40;;
17177;SDS011;8704;52.006;4.374;2023-05-10T00:37:19;42.47;;;37.88;;
17177;SDS011;8704;52.006;4.374;2023-05-10T00:39:47;39.20;;;35.05;;
17177;SDS011;8704;52.006;4.374;2023-05-10T00:42:15;42.15;;;37.67;;
17177;SDS011;8704;52.006;4.374;2023-05-10T00:44:43;45.20;;;40.38;;
17177;SDS011;8704;52.006;4.374;2023-05-10T00:47:12;46.10;;;41.55;;
17177;SDS011;8704;52.006;4.374;2023-05-10T00:49:40;46.17;;;41.70;;
17177;SDS011;8704;52.006;4.374;2023-05-10T00:52:08;53.08;;;47.17;;
17177;SDS011;8704;52.006;4.374;2023-05-10T00:54:38;56.83;;;50.25;;
17177;SDS011;8704;52.006;4.374;2023-05-10T00:57:06;59.08;;;52.67;;
17177;SDS011;8704;52.006;4.374;2023-05-10T00:59:34;80.55;;;62.97;;
17177;SDS011;8704;52.006;4.374;2023-05-10T01:02:02;96.15;;;79.03;;
17177;SDS011;8704;52.006;4.374;2023-05-10T01:04:30;117.07;;;88.53;;
17177;SDS011;8704;52.006;4.374;2023-05-10T01:06:58;120.90;;;89.85;;
17177;SDS011;8704;52.006;4.374;2023-05-10T01:09:27;143.10;;;105.05;;
17177;SDS011;8704;52.006;4.374;2023-05-10T01:11:56;153.20;;;113.72;;
17177;SDS011;8704;52.006;4.374;2023-05-10T01:14:25;162.50;;;117.68;;
17177;SDS011;8704;52.006;4.374;2023-05-10T01:16:54;149.13;;;111.20;;
17177;SDS011;8704;52.006;4.374;2023-05-10T01:19:23;173.10;;;120.82;;
17177;SDS011;8704;52.006;4.374;2023-05-10T01:21:55;216.73;;;137.13;;
17177;SDS011;8704;52.006;4.374;2023-05-10T01:27:51;145.98;;;116.50;;
17177;SDS011;8704;52.006;4.374;2023-05-10T01:30:47;150.68;;;121.50;;
17177;SDS011;8704;52.006;4.374;2023-05-10T01:33:33;159.43;;;128.57;;
17177;SDS011;8704;52.006;4.374;2023-05-10T01:36:05;143.50;;;122.78;;
17177;SDS011;8704;52.006;4.374;2023-05-10T01:38:42;163.52;;;125.70;;
17177;SDS011;8704;52.006;4.374;2023-05-10T01:41:14;146.32;;;125.90;;
17177;SDS011;8704;52.006;4.374;2023-05-10T01:43:48;135.27;;;117.53;;
17177;SDS011;8704;52.006;4.374;2023-05-10T01:46:24;142.07;;;126.80;;
17177;SDS011;8704;52.006;4.374;2023-05-10T01:48:57;134.48;;;120.45;;
17177;SDS011;8704;52.006;4.374;2023-05-10T01:51:29;135.85;;;122.32;;
17177;SDS011;8704;52.006;4.374;2023-05-10T01:54:03;129.38;;;116.47;;
17177;SDS011;8704;52.006;4.374;2023-05-10T01:56:33;123.13;;;110.15;;
17177;SDS011;8704;52.006;4.374;2023-05-10T01:59:04;119.15;;;106.75;;
17177;SDS011;8704;52.006;4.374;2023-05-10T02:01:36;131.50;;;111.95;;
17177;SDS011;8704;52.006;4.374;2023-05-10T02:04:06;117.63;;;105.40;;
17177;SDS011;8704;52.006;4.374;2023-05-10T02:06:36;121.47;;;109.13;;
17177;SDS011;8704;52.006;4.374;2023-05-10T02:09:06;114.78;;;103.35;;
17177;SDS011;8704;52.006;4.374;2023-05-10T02:11:36;113.07;;;101.30;;
17177;SDS011;8704;52.006;4.374;2023-05-10T02:14:05;120.93;;;107.57;;
17177;SDS011;8704;52.006;4.374;2023-05-10T02:16:36;114.68;;;103.28;;
17177;SDS011;8704;52.006;4.374;2023-05-10T02:19:08;116.88;;;104.60;;
17177;SDS011;8704;52.006;4.374;2023-05-10T02:21:37;116.28;;;104.57;;
17177;SDS011;8704;52.006;4.374;2023-05-10T02:24:07;117.82;;;105.50;;
17177;SDS011;8704;52.006;4.374;2023-05-10T02:26:36;105.28;;;95.32;;
17177;SDS011;8704;52.006;4.374;2023-05-10T02:29:05;107.68;;;96.57;;
17177;SDS011;8704;52.006;4.374;2023-05-10T02:31:34;106.55;;;96.18;;
17177;SDS011;8704;52.006;4.374;2023-05-10T02:34:05;104.63;;;92.95;;
17177;SDS011;8704;52.006;4.374;2023-05-10T02:36:35;95.90;;;85.30;;
17177;SDS011;8704;52.006;4.374;2023-05-10T02:39:04;73.90;;;66.03;;
17177;SDS011;8704;52.006;4.374;2023-05-10T02:41:36;68.05;;;59.67;;
17177;SDS011;8704;52.006;4.374;2023-05-10T02:44:05;55.63;;;46.45;;
17177;SDS011;8704;52.006;4.374;2023-05-10T02:46:35;62.15;;;53.42;;
17177;SDS011;8704;52.006;4.374;2023-05-10T02:49:04;61.22;;;51.50;;
17177;SDS011;8704;52.006;4.374;2023-05-10T02:51:35;59.75;;;53.67;;
17177;SDS011;8704;52.006;4.374;2023-05-10T02:54:09;57.80;;;51.65;;
17177;SDS011;8704;52.006;4.374;2023-05-10T02:56:40;61.70;;;55.38;;
17177;SDS011;8704;52.006;4.374;2023-05-10T02:59:13;56.58;;;47.00;;
17177;SDS011;8704;52.006;4.374;2023-05-10T03:01:41;55.55;;;49.72;;
17177;SDS011;8704;52.006;4.374;2023-05-10T03:04:09;54.25;;;48.30;;
17177;SDS011;8704;52.006;4.374;2023-05-10T03:06:39;58.70;;;52.78;;
17177;SDS011;8704;52.006;4.374;2023-05-10T03:09:08;52.90;;;46.92;;
17177;SDS011;8704;52.006;4.374;2023-05-10T03:11:39;62.40;;;53.60;;
17177;SDS011;8704;52.006;4.374;2023-05-10T03:14:16;60.78;;;51.03;;
17177;SDS011;8704;52.006;4.374;2023-05-10T03:17:00;60.13;;;53.42;;
17177;SDS011;8704;52.006;4.374;2023-05-10T03:19:32;62.22;;;51.53;;
17177;SDS011;8704;52.006;4.374;2023-05-10T03:22:10;52.30;;;42.78;;
17177;SDS011;8704;52.006;4.374;2023-05-10T03:24:40;61.05;;;45.90;;
17177;SDS011;8704;52.006;4.374;2023-05-10T03:27:09;68.20;;;56.33;;
17177;SDS011;8704;52.006;4.374;2023-05-10T03:29:37;61.63;;;55.38;;
17177;SDS011;8704;52.006;4.374;2023-05-10T03:32:06;64.32;;;54.05;;
17177;SDS011;8704;52.006;4.374;2023-05-10T03:34:35;65.78;;;52.95;;
17177;SDS011;8704;52.006;4.374;2023-05-10T03:37:10;56.95;;;43.10;;
17177;SDS011;8704;52.006;4.374;2023-05-10T03:39:38;66.03;;;40.95;;
17177;SDS011;8704;52.006;4.374;2023-05-10T03:42:05;60.90;;;40.08;;
17177;SDS011;8704;52.006;4.374;2023-05-10T03:44:33;56.45;;;43.40;;
17177;SDS011;8704;52.006;4.374;2023-05-10T03:47:01;46.80;;;36.70;;
17177;SDS011;8704;52.006;4.374;2023-05-10T03:49:29;55.45;;;40.63;;
17177;SDS011;8704;52.006;4.374;2023-05-10T03:51:58;52.83;;;43.42;;
17177;SDS011;8704;52.006;4.374;2023-05-10T03:54:27;56.58;;;40.90;;
17177;SDS011;8704;52.006;4.374;2023-05-10T03:56:55;51.47;;;40.05;;
17177;SDS011;8704;52.006;4.374;2023-05-10T03:59:23;42.03;;;33.17;;
17177;SDS011;8704;52.006;4.374;2023-05-10T04:01:51;61.42;;;44.88;;
17177;SDS011;8704;52.006;4.374;2023-05-10T04:04:19;66.68;;;45.00;;
17177;SDS011;8704;52.006;4.374;2023-05-10T04:06:48;72.53;;;44.92;;
17177;SDS011;8704;52.006;4.374;2023-05-10T04:09:16;72.95;;;41.40;;
17177;SDS011;8704;52.006;4.374;2023-05-10T04:11:45;72.03;;;37.10;;
17177;SDS011;8704;52.006;4.374;2023-05-10T04:14:13;69.80;;;34.13;;
17177;SDS011;8704;52.006;4.374;2023-05-10T04:16:41;68.03;;;34.13;;
17177;SDS011;8704;52.006;4.374;2023-05-10T04:19:09;75.90;;;31.92;;
17177;SDS011;8704;52.006;4.374;2023-05-10T04:21:37;79.03;;;29.40;;
17177;SDS011;8704;52.006;4.374;2023-05-10T04:24:05;98.03;;;26.80;;
17177;SDS011;8704;52.006;4.374;2023-05-10T04:26:33;53.63;;;25.67;;
17177;SDS011;8704;52.006;4.374;2023-05-10T04:29:02;53.97;;;28.75;;
17177;SDS011;8704;52.006;4.374;2023-05-10T04:31:30;64.00;;;29.20;;
17177;SDS011;8704;52.006;4.374;2023-05-10T04:33:58;44.95;;;20.67;;
17177;SDS011;8704;52.006;4.374;2023-05-10T04:36:26;33.13;;;20.83;;
17177;SDS011;8704;52.006;4.374;2023-05-10T04:38:54;29.17;;;18.95;;
17177;SDS011;8704;52.006;4.374;2023-05-10T04:41:22;22.85;;;17.85;;
17177;SDS011;8704;52.006;4.374;2023-05-10T04:43:51;15.27;;;13.05;;
17177;SDS011;8704;52.006;4.374;2023-05-10T04:46:20;13.75;;;12.27;;
17177;SDS011;8704;52.006;4.374;2023-05-10T04:48:48;13.57;;;12.18;;
17177;SDS011;8704;52.006;4.374;2023-05-10T04:51:16;12.43;;;11.00;;
17177;SDS011;8704;52.006;4.374;2023-05-10T04:53:44;15.18;;;12.23;;
17177;SDS011;8704;52.006;4.374;2023-05-10T04:56:30;12.48;;;11.27;;
17177;SDS011;8704;52.006;4.374;2023-05-10T04:58:58;9.63;;;8.77;;
17177;SDS011;8704;52.006;4.374;2023-05-10T05:01:28;11.00;;;9.95;;
17177;SDS011;8704;52.006;4.374;2023-05-10T05:03:55;10.30;;;9.40;;
17177;SDS011;8704;52.006;4.374;2023-05-10T05:06:24;10.20;;;9.20;;
17177;SDS011;8704;52.006;4.374;2023-05-10T05:08:53;10.65;;;9.75;;
17177;SDS011;8704;52.006;4.374;2023-05-10T05:11:21;11.85;;;10.73;;
17177;SDS011;8704;52.006;4.374;2023-05-10T05:13:49;11.07;;;10.07;;
17177;SDS011;8704;52.006;4.374;2023-05-10T05:16:16;13.77;;;12.55;;
17177;SDS011;8704;52.006;4.374;2023-05-10T05:18:46;15.05;;;13.65;;
17177;SDS011;8704;52.006;4.374;2023-05-10T05:21:14;16.58;;;15.15;;
17177;SDS011;8704;52.006;4.374;2023-05-10T05:23:42;15.57;;;14.02;;
17177;SDS011;8704;52.006;4.374;2023-05-10T05:26:10;16.27;;;14.77;;
17177;SDS011;8704;52.006;4.374;2023-05-10T05:28:39;14.00;;;12.77;;
17177;SDS011;8704;52.006;4.374;2023-05-10T05:31:07;14.85;;;13.55;;
17177;SDS011;8704;52.006;4.374;2023-05-10T05:33:35;16.55;;;14.85;;
17177;SDS011;8704;52.006;4.374;2023-05-10T05:36:05;18.50;;;16.90;;
17177;SDS011;8704;52.006;4.374;2023-05-10T05:38:33;16.40;;;14.77;;
17177;SDS011;8704;52.006;4.374;2023-05-10T05:41:01;18.25;;;16.55;;
17177;SDS011;8704;52.006;4.374;2023-05-10T05:43:29;18.80;;;17.00;;
17177;SDS011;8704;52.006;4.374;2023-05-10T05:45:57;20.35;;;18.63;;
17177;SDS011;8704;52.006;4.374;2023-05-10T05:48:25;19.38;;;17.48;;
17177;SDS011;8704;52.006;4.374;2023-05-10T05:50:54;17.42;;;15.80;;
17177;SDS011;8704;52.006;4.374;2023-05-10T05:53:24;17.77;;;16.08;;
17177;SDS011;8704;52.006;4.374;2023-05-10T05:55:52;16.30;;;14.60;;
17177;SDS011;8704;52.006;4.374;2023-05-10T05:58:21;16.80;;;15.05;;
17177;SDS011;8704;52.006;4.374;2023-05-10T06:00:49;16.27;;;14.52;;
17177;SDS011;8704;52.006;4.374;2023-05-10T06:03:18;16.83;;;15.23;;
17177;SDS011;8704;52.006;4.374;2023-05-10T06:05:46;17.65;;;14.18;;
17177;SDS011;8704;52.006;4.374;2023-05-10T06:08:14;15.27;;;12.88;;
17177;SDS011;8704;52.006;4.374;2023-05-10T06:10:44;16.23;;;14.43;;
17177;SDS011;8704;52.006;4.374;2023-05-10T06:13:12;16.90;;;15.10;;
17177;SDS011;8704;52.006;4.374;2023-05-10T06:15:40;17.85;;;15.63;;
17177;SDS011;8704;52.006;4.374;2023-05-10T06:18:08;17.58;;;13.20;;
17177;SDS011;8704;52.006;4.374;2023-05-10T06:20:36;15.38;;;12.60;;
17177;SDS011;8704;52.006;4.374;2023-05-10T06:23:03;21.55;;;14.57;;
17177;SDS011;8704;52.006;4.374;2023-05-10T06:25:31;20.52;;;16.08;;
17177;SDS011;8704;52.006;4.374;2023-05-10T06:28:00;17.05;;;12.95;;
17177;SDS011;8704;52.006;4.374;2023-05-10T06:30:28;14.55;;;11.73;;
17177;SDS011;8704;52.006;4.374;2023-05-10T06:32:56;16.95;;;13.60;;
17177;SDS011;8704;52.006;4.374;2023-05-10T06:35:25;16.50;;;14.23;;
17177;SDS011;8704;52.006;4.374;2023-05-10T06:37:53;13.50;;;11.00;;
17177;SDS011;8704;52.006;4.374;2023-05-10T06:40:21;14.15;;;10.52;;
17177;SDS011;8704;52.006;4.374;2023-05-10T06:42:48;14.15;;;11.48;;
17177;SDS011;8704;52.006;4.374;2023-05-10T06:45:18;15.68;;;12.02;;
17177;SDS011;8704;52.006;4.374;2023-05-10T06:47:46;16.08;;;13.05;;
17177;SDS011;8704;52.006;4.374;2023-05-10T06:50:14;17.10;;;14.18;;
17177;SDS011;8704;52.006;4.374;2023-05-10T06:52:42;18.40;;;15.25;;
17177;SDS011;8704;52.006;4.374;2023-05-10T06:55:10;15.73;;;13.52;;
17177;SDS011;8704;52.006;4.374;2023-05-10T06:57:38;16.00;;;12.88;;
17177;SDS011;8704;52.006;4.374;2023-05-10T07:00:06;15.60;;;13.27;;
17177;SDS011;8704;52.006;4.374;2023-05-10T07:02:37;18.23;;;13.38;;
17177;SDS011;8704;52.006;4.374;2023-05-10T07:05:05;15.48;;;12.68;;
17177;SDS011;8704;52.006;4.374;2023-05-10T07:07:33;16.27;;;11.73;;
17177;SDS011;8704;52.006;4.374;2023-05-10T07:10:01;16.33;;;12.55;;
17177;SDS011;8704;52.006;4.374;2023-05-10T07:12:29;15.32;;;12.70;;
17177;SDS011;8704;52.006;4.374;2023-05-10T07:14:57;16.45;;;11.65;;
17177;SDS011;8704;52.006;4.374;2023-05-10T07:17:25;15.40;;;9.52;;
17177;SDS011;8704;52.006;4.374;2023-05-10T07:19:55;15.02;;;11.85;;
17177;SDS011;8704;52.006;4.374;2023-05-10T07:22:23;13.60;;;10.10;;
17177;SDS011;8704;52.006;4.374;2023-05-10T07:24:51;13.23;;;10.70;;
17177;SDS011;8704;52.006;4.374;2023-05-10T07:27:18;15.43;;;12.65;;
17177;SDS011;8704;52.006;4.374;2023-05-10T07:29:46;14.80;;;11.50;;
17177;SDS011;8704;52.006;4.374;2023-05-10T07:32:14;15.00;;;9.27;;
17177;SDS011;8704;52.006;4.374;2023-05-10T07:34:42;14.20;;;9.70;;
17177;SDS011;8704;52.006;4.374;2023-05-10T07:37:12;11.93;;;8.15;;
17177;SDS011;8704;52.006;4.374;2023-05-10T07:39:40;11.85;;;7.47;;
17177;SDS011;8704;52.006;4.374;2023-05-10T07:42:07;12.93;;;8.63;;
17177;SDS011;8704;52.006;4.374;2023-05-10T07:44:35;12.32;;;7.25;;
17177;SDS011;8704;52.006;4.374;2023-05-10T07:47:03;10.35;;;6.95;;
17177;SDS011;8704;52.006;4.374;2023-05-10T07:49:31;11.30;;;7.60;;
17177;SDS011;8704;52.006;4.374;2023-05-10T07:51:59;11.88;;;7.47;;
17177;SDS011;8704;52.006;4.374;2023-05-10T07:54:28;10.48;;;9.02;;
17177;SDS011;8704;52.006;4.374;2023-05-10T07:56:56;10.80;;;8.30;;
17177;SDS011;8704;52.006;4.374;2023-05-10T07:59:26;11.57;;;7.55;;
17177;SDS011;8704;52.006;4.374;2023-05-10T08:01:53;13.30;;;7.00;;
17177;SDS011;8704;52.006;4.374;2023-05-10T08:04:22;11.13;;;6.90;;
17177;SDS011;8704;52.006;4.374;2023-05-10T08:06:50;9.07;;;6.78;;
17177;SDS011;8704;52.006;4.374;2023-05-10T08:09:18;11.35;;;7.82;;
17177;SDS011;8704;52.006;4.374;2023-05-10T08:11:51;9.18;;;7.20;;
17177;SDS011;8704;52.006;4.374;2023-05-10T08:14:19;9.77;;;7.78;;
17177;SDS011;8704;52.006;4.374;2023-05-10T08:16:47;11.18;;;6.88;;
17177;SDS011;8704;52.006;4.374;2023-05-10T08:19:15;9.95;;;6.80;;
17177;SDS011;8704;52.006;4.374;2023-05-10T08:21:45;9.07;;;6.95;;
17177;SDS011;8704;52.006;4.374;2023-05-10T08:24:13;9.85;;;7.55;;
17177;SDS011;8704;52.006;4.374;2023-05-10T08:26:41;8.75;;;7.03;;
17177;SDS011;8704;52.006;4.374;2023-05-10T08:29:10;8.98;;;8.07;;
17177;SDS011;8704;52.006;4.374;2023-05-10T08:31:38;6.88;;;6.18;;
17177;SDS011;8704;52.006;4.374;2023-05-10T08:34:06;9.30;;;7.53;;
17177;SDS011;8704;52.006;4.374;2023-05-10T08:36:34;8.43;;;7.32;;
17177;SDS011;8704;52.006;4.374;2023-05-10T08:39:02;8.02;;;7.13;;
17177;SDS011;8704;52.006;4.374;2023-05-10T08:41:36;7.53;;;5.65;;
17177;SDS011;8704;52.006;4.374;2023-05-10T08:44:07;5.65;;;5.00;;
17177;SDS011;8704;52.006;4.374;2023-05-10T08:46:37;7.43;;;5.43;;
17177;SDS011;8704;52.006;4.374;2023-05-10T08:49:10;8.10;;;5.20;;
17177;SDS011;8704;52.006;4.374;2023-05-10T08:51:43;7.93;;;5.55;;
17177;SDS011;8704;52.006;4.374;2023-05-10T08:54:17;7.32;;;6.28;;
17177;SDS011;8704;52.006;4.374;2023-05-10T08:56:45;9.32;;;6.43;;
17177;SDS011;8704;52.006;4.374;2023-05-10T08:59:15;9.23;;;5.82;;
17177;SDS011;8704;52.006;4.374;2023-05-10T09:01:44;10.02;;;6.80;;
17177;SDS011;8704;52.006;4.374;2023-05-10T09:06:43;8.35;;;7.15;;
17177;SDS011;8704;52.006;4.374;2023-05-10T09:09:11;8.13;;;6.30;;
17177;SDS011;8704;52.006;4.374;2023-05-10T09:11:39;7.95;;;6.03;;
17177;SDS011;8704;52.006;4.374;2023-05-10T09:14:07;9.10;;;6.95;;
17177;SDS011;8704;52.006;4.374;2023-05-10T09:16:36;10.75;;;7.65;;
17177;SDS011;8704;52.006;4.374;2023-05-10T09:19:06;11.63;;;7.32;;
17177;SDS011;8704;52.006;4.374;2023-05-10T09:21:35;16.35;;;7.78;;
17177;SDS011;8704;52.006;4.374;2023-05-10T09:24:05;11.45;;;8.02;;
17177;SDS011;8704;52.006;4.374;2023-05-10T09:26:35;8.93;;;7.28;;
17177;SDS011;8704;52.006;4.374;2023-05-10T09:29:03;12.27;;;8.05;;
17177;SDS011;8704;52.006;4.374;2023-05-10T09:31:45;10.23;;;8.20;;
17177;SDS011;8704;52.006;4.374;2023-05-10T09:34:18;9.80;;;7.25;;
17177;SDS011;8704;52.006;4.374;2023-05-10T09:36:54;10.68;;;7.70;;
17177;SDS011;8704;52.006;4.374;2023-05-10T09:39:29;9.13;;;7.88;;
17177;SDS011;8704;52.006;4.374;2023-05-10T09:41:59;11.55;;;7.50;;
17177;SDS011;8704;52.006;4.374;2023-05-10T09:44:30;8.48;;;6.78;;
17177;SDS011;8704;52.006;4.374;2023-05-10T09:46:58;10.02;;;6.97;;
17177;SDS011;8704;52.006;4.374;2023-05-10T09:49:28;10.55;;;7.88;;
17177;SDS011;8704;52.006;4.374;2023-05-10T09:52:00;11.60;;;7.68;;
17177;SDS011;8704;52.006;4.374;2023-05-10T09:54:29;12.27;;;8.15;;
17177;SDS011;8704;52.006;4.374;2023-05-10T09:56:58;14.20;;;8.10;;
17177;SDS011;8704;52.006;4.374;2023-05-10T09:59:26;11.93;;;7.50;;
17177;SDS011;8704;52.006;4.374;2023-05-10T10:01:55;10.30;;;8.15;;
17177;SDS011;8704;52.006;4.374;2023-05-10T10:04:24;10.52;;;7.90;;
17177;SDS011;8704;52.006;4.374;2023-05-10T10:06:59;13.65;;;8.95;;
17177;SDS011;8704;52.006;4.374;2023-05-10T10:09:28;11.68;;;8.27;;
17177;SDS011;8704;52.006;4.374;2023-05-10T10:11:57;12.55;;;8.40;;
17177;SDS011;8704;52.006;4.374;2023-05-10T10:14:26;10.43;;;8.13;;
17177;SDS011;8704;52.006;4.374;2023-05-10T10:16:54;13.07;;;8.98;;
17177;SDS011;8704;52.006;4.374;2023-05-10T10:19:33;11.38;;;8.70;;
17177;SDS011;8704;52.006;4.374;2023-05-10T10:22:03;9.80;;;8.13;;
17177;SDS011;8704;52.006;4.374;2023-05-10T10:24:32;13.35;;;8.88;;
17177;SDS011;8704;52.006;4.374;2023-05-10T10:27:03;8.18;;;6.43;;
17177;SDS011;8704;52.006;4.374;2023-05-10T10:29:39;10.05;;;7.35;;
17177;SDS011;8704;52.006;4.374;2023-05-10T10:32:18;9.85;;;7.20;;
17177;SDS011;8704;52.006;4.374;2023-05-10T10:34:53;9.55;;;7.53;;
17177;SDS011;8704;52.006;4.374;2023-05-10T10:37:23;8.88;;;6.57;;
17177;SDS011;8704;52.006;4.374;2023-05-10T10:40:22;8.02;;;7.22;;
17177;SDS011;8704;52.006;4.374;2023-05-10T10:42:51;8.63;;;6.82;;
17177;SDS011;8704;52.006;4.374;2023-05-10T10:45:21;9.60;;;6.95;;
17177;SDS011;8704;52.006;4.374;2023-05-10T10:47:53;9.80;;;7.10;;
17177;SDS011;8704;52.006;4.374;2023-05-10T10:50:55;9.32;;;6.82;;
17177;SDS011;8704;52.006;4.374;2023-05-10T10:53:27;8.90;;;7.78;;
17177;SDS011;8704;52.006;4.374;2023-05-10T10:56:02;11.38;;;7.82;;
17177;SDS011;8704;52.006;4.374;2023-05-10T10:58:33;11.93;;;8.38;;
17177;SDS011;8704;52.006;4.374;2023-05-10T11:01:12;10.30;;;8.05;;
17177;SDS011;8704;52.006;4.374;2023-05-10T11:03:54;7.82;;;6.70;;
17177;SDS011;8704;52.006;4.374;2023-05-10T11:06:37;8.98;;;6.53;;
17177;SDS011;8704;52.006;4.374;2023-05-10T11:09:07;10.90;;;7.22;;
17177;SDS011;8704;52.006;4.374;2023-05-10T11:11:48;8.05;;;7.18;;
17177;SDS011;8704;52.006;4.374;2023-05-10T11:14:19;8.82;;;6.97;;
17177;SDS011;8704;52.006;4.374;2023-05-10T11:16:48;8.55;;;6.93;;
17177;SDS011;8704;52.006;4.374;2023-05-10T11:19:17;9.30;;;7.70;;
17177;SDS011;8704;52.006;4.374;2023-05-10T11:21:46;12.88;;;8.02;;
17177;SDS011;8704;52.006;4.374;2023-05-10T11:24:16;10.32;;;7.10;;
17177;SDS011;8704;52.006;4.374;2023-05-10T11:26:45;10.35;;;7.53;;
17177;SDS011;8704;52.006;4.374;2023-05-10T11:29:16;10.32;;;8.25;;
17177;SDS011;8704;52.006;4.374;2023-05-10T11:31:45;9.88;;;7.43;;
17177;SDS011;8704;52.006;4.374;2023-05-10T11:34:22;12.88;;;8.18;;
17177;SDS011;8704;52.006;4.374;2023-05-10T11:36:51;11.90;;;6.93;;
17177;SDS011;8704;52.006;4.374;2023-05-10T11:39:25;9.18;;;7.05;;
17177;SDS011;8704;52.006;4.374;2023-05-10T11:41:54;9.07;;;6.78;;
17177;SDS011;8704;52.006;4.374;2023-05-10T11:44:22;9.50;;;7.18;;
17177;SDS011;8704;52.006;4.374;2023-05-10T11:46:51;8.82;;;7.32;;
17177;SDS011;8704;52.006;4.374;2023-05-10T11:49:19;9.00;;;6.68;;
17177;SDS011;8704;52.006;4.374;2023-05-10T11:51:50;10.73;;;6.95;;
17177;SDS011;8704;52.006;4.374;2023-05-10T11:54:18;9.23;;;7.00;;
17177;SDS011;8704;52.006;4.374;2023-05-10T11:56:48;10.30;;;7.20;;
17177;SDS011;8704;52.006;4.374;2023-05-10T11:59:18;12.13;;;7.40;;
17177;SDS011;8704;52.006;4.374;2023-05-10T12:01:46;11.82;;;7.82;;
17177;SDS011;8704;52.006;4.374;2023-05-10T12:04:15;10.63;;;7.63;;
17177;SDS011;8704;52.006;4.374;2023-05-10T12:06:43;8.73;;;6.93;;
17177;SDS011;8704;52.006;4.374;2023-05-10T12:09:12;9.32;;;6.47;;
17177;SDS011;8704;52.006;4.374;2023-05-10T12:11:44;9.52;;;6.28;;
17177;SDS011;8704;52.006;4.374;2023-05-10T12:14:13;10.40;;;6.03;;
17177;SDS011;8704;52.006;4.374;2023-05-10T12:16:42;9.73;;;7.40;;
17177;SDS011;8704;52.006;4.374;2023-05-10T12:19:11;10.80;;;6.97;;
17177;SDS011;8704;52.006;4.374;2023-05-10T12:21:39;8.45;;;6.80;;
17177;SDS011;8704;52.006;4.374;2023-05-10T12:24:07;8.93;;;6.05;;
17177;SDS011;8704;52.006;4.374;2023-05-10T12:26:36;7.75;;;6.07;;
17177;SDS011;8704;52.006;4.374;2023-05-10T12:29:23;9.35;;;7.07;;
17177;SDS011;8704;52.006;4.374;2023-05-10T12:31:52;10.73;;;6.75;;
17177;SDS011;8704;52.006;4.374;2023-05-10T12:34:30;11.35;;;7.15;;
17177;SDS011;8704;52.006;4.374;2023-05-10T12:37:00;9.55;;;6.43;;
17177;SDS011;8704;52.006;4.374;2023-05-10T12:39:38;13.00;;;6.68;;
17177;SDS011;8704;52.006;4.374;2023-05-10T12:42:07;11.18;;;6.53;;
17177;SDS011;8704;52.006;4.374;2023-05-10T12:44:36;10.38;;;6.60;;
17177;SDS011;8704;52.006;4.374;2023-05-10T12:47:04;11.60;;;6.63;;
17177;SDS011;8704;52.006;4.374;2023-05-10T12:49:32;9.05;;;6.03;;
17177;SDS011;8704;52.006;4.374;2023-05-10T12:52:00;6.85;;;5.60;;
17177;SDS011;8704;52.006;4.374;2023-05-10T12:54:28;8.93;;;5.63;;
17177;SDS011;8704;52.006;4.374;2023-05-10T12:56:56;8.35;;;5.28;;
17177;SDS011;8704;52.006;4.374;2023-05-10T12:59:24;9.15;;;6.28;;
17177;SDS011;8704;52.006;4.374;2023-05-10T13:01:53;11.50;;;6.95;;
17177;SDS011;8704;52.006;4.374;2023-05-10T13:04:21;8.88;;;6.38;;
17177;SDS011;8704;52.006;4.374;2023-05-10T13:06:49;8.30;;;6.65;;
17177;SDS011;8704;52.006;4.374;2023-05-10T13:09:17;10.55;;;6.88;;
17177;SDS011;8704;52.006;4.374;2023-05-10T13:11:46;8.52;;;5.95;;
17177;SDS011;8704;52.006;4.374;2023-05-10T13:14:14;9.38;;;6.18;;
17177;SDS011;8704;52.006;4.374;2023-05-10T13:16:42;8.80;;;5.82;;
17177;SDS011;8704;52.006;4.374;2023-05-10T13:19:12;9.10;;;5.95;;
17177;SDS011;8704;52.006;4.374;2023-05-10T13:21:40;7.70;;;4.88;;
17177;SDS011;8704;52.006;4.374;2023-05-10T13:24:08;6.93;;;4.75;;
17177;SDS011;8704;52.006;4.374;2023-05-10T13:26:36;7.68;;;4.95;;
17177;SDS011;8704;52.006;4.374;2023-05-10T13:29:04;8.40;;;4.88;;
17177;SDS011;8704;52.006;4.374;2023-05-10T13:31:32;11.95;;;4.88;;
17177;SDS011;8704;52.006;4.374;2023-05-10T13:34:01;6.50;;;4.55;;
17177;SDS011;8704;52.006;4.374;2023-05-10T13:36:30;6.70;;;4.32;;
17177;SDS011;8704;52.006;4.374;2023-05-10T13:38:58;7.28;;;4.30;;
17177;SDS011;8704;52.006;4.374;2023-05-10T13:41:28;8.38;;;4.00;;
17177;SDS011;8704;52.006;4.374;2023-05-10T13:43:56;8.13;;;4.30;;
17177;SDS011;8704;52.006;4.374;2023-05-10T13:46:24;6.68;;;5.05;;
17177;SDS011;8704;52.006;4.374;2023-05-10T13:48:52;8.82;;;5.05;;
17177;SDS011;8704;52.006;4.374;2023-05-10T13:51:20;9.60;;;5.70;;
17177;SDS011;8704;52.006;4.374;2023-05-10T13:53:49;9.82;;;5.45;;
17177;SDS011;8704;52.006;4.374;2023-05-10T13:56:18;6.78;;;5.60;;
17177;SDS011;8704;52.006;4.374;2023-05-10T13:58:46;7.63;;;5.78;;
17177;SDS011;8704;52.006;4.374;2023-05-10T14:01:14;9.98;;;5.65;;
17177;SDS011;8704;52.006;4.374;2023-05-10T14:03:42;9.07;;;6.10;;
17177;SDS011;8704;52.006;4.374;2023-05-10T14:06:10;8.30;;;6.20;;
17177;SDS011;8704;52.006;4.374;2023-05-10T14:08:38;7.55;;;5.78;;
17177;SDS011;8704;52.006;4.374;2023-05-10T14:11:07;7.70;;;5.97;;
17177;SDS011;8704;52.006;4.374;2023-05-10T14:13:35;8.38;;;6.03;;
17177;SDS011;8704;52.006;4.374;2023-05-10T14:16:03;7.30;;;5.00;;
17177;SDS011;8704;52.006;4.374;2023-05-10T14:18:32;6.97;;;4.93;;
17177;SDS011;8704;52.006;4.374;2023-05-10T14:21:01;7.35;;;5.20;;
17177;SDS011;8704;52.006;4.374;2023-05-10T14:23:29;6.78;;;5.18;;
17177;SDS011;8704;52.006;4.374;2023-05-10T14:25:57;7.85;;;5.10;;
17177;SDS011;8704;52.006;4.374;2023-05-10T14:28:26;6.50;;;4.40;;
17177;SDS011;8704;52.006;4.374;2023-05-10T14:30:54;7.47;;;4.43;;
17177;SDS011;8704;52.006;4.374;2023-05-10T14:33:22;7.47;;;4.85;;
17177;SDS011;8704;52.006;4.374;2023-05-10T14:35:50;6.65;;;4.72;;
17177;SDS011;8704;52.006;4.374;2023-05-10T14:38:18;6.63;;;5.47;;
17177;SDS011;8704;52.006;4.374;2023-05-10T14:40:46;6.93;;;4.50;;
17177;SDS011;8704;52.006;4.374;2023-05-10T14:43:14;5.45;;;4.47;;
17177;SDS011;8704;52.006;4.374;2023-05-10T14:45:43;5.13;;;3.55;;
17177;SDS011;8704;52.006;4.374;2023-05-10T14:48:12;5.10;;;3.30;;
17177;SDS011;8704;52.006;4.374;2023-05-10T14:50:42;6.75;;;3.70;;
17177;SDS011;8704;52.006;4.374;2023-05-10T14:53:10;6.13;;;3.60;;
17177;SDS011;8704;52.006;4.374;2023-05-10T14:55:38;4.70;;;3.53;;
17177;SDS011;8704;52.006;4.374;2023-05-10T14:58:06;4.72;;;3.58;;
17177;SDS011;8704;52.006;4.374;2023-05-10T15:00:34;4.10;;;2.80;;
17177;SDS011;8704;52.006;4.374;2023-05-10T15:03:03;5.22;;;3.22;;